createdAt,value
2023-04-12T00:00:31.113Z,99385.91
2023-04-12T00:02:59.545Z,99378.97
2023-04-12T00:05:27.301Z,99384.16
2023-04-12T00:07:55.394Z,99372.91
2023-04-12T00:10:23.180Z,99379.00
2023-04-12T00:12:50.544Z,99387.66
2023-04-12T00:15:17.997Z,99377.31
2023-04-12T00:17:46.607Z,99371.25
2023-04-12T00:20:16.396Z,99376.41
2023-04-12T00:22:43.785Z,99385.94
2023-04-12T00:25:11.660Z,99397.16
2023-04-12T00:27:39.339Z,99385.91
2023-04-12T00:30:08.294Z,99392.84
2023-04-12T00:32:36.187Z,99387.66
2023-04-12T00:35:03.731Z,99392.84
2023-04-12T00:37:31.203Z,99383.31
2023-04-12T00:39:58.845Z,99368.50
2023-04-12T00:42:26.281Z,99373.81
2023-04-12T00:44:53.718Z,99364.22
2023-04-12T00:47:21.549Z,99366.03
2023-04-12T00:49:49.015Z,99353.97
2023-04-12T00:52:18.027Z,99366.91
2023-04-12T00:54:45.886Z,99360.00
2023-04-12T00:57:13.403Z,99368.59
2023-04-12T00:59:40.977Z,99369.41
2023-04-12T01:02:09.345Z,99375.41
2023-04-12T01:04:38.062Z,99366.06
2023-04-12T01:07:22.285Z,99367.78
2023-04-12T01:10:26.134Z,99364.31
2023-04-12T01:13:33.137Z,99364.22
2023-04-12T01:16:06.859Z,99356.53
2023-04-12T01:18:40.881Z,99372.81
2023-04-12T01:21:15.652Z,99368.53
2023-04-12T01:23:58.717Z,99370.38
2023-04-12T01:26:41.938Z,99377.28
2023-04-12T01:29:10.987Z,99373.66
2023-04-12T01:31:52.139Z,99371.09
2023-04-12T01:34:20.633Z,99366.72
2023-04-12T01:36:49.283Z,99371.91
2023-04-12T01:39:17.144Z,99367.66
2023-04-12T01:41:48.861Z,99359.88
2023-04-12T01:44:17.264Z,99360.72
2023-04-12T01:46:48.917Z,99361.56
2023-04-12T01:49:17.821Z,99364.16
2023-04-12T01:52:23.469Z,99374.47
2023-04-12T01:54:51.463Z,99377.91
2023-04-12T01:57:19.236Z,99378.81
2023-04-12T01:59:49.073Z,99375.28
2023-04-12T02:02:16.914Z,99371.81
2023-04-12T02:04:44.806Z,99362.47
2023-04-12T02:07:13.625Z,99354.66
2023-04-12T02:09:41.230Z,99363.22
2023-04-12T02:12:09.330Z,99367.47
2023-04-12T02:14:37.127Z,99361.56
2023-04-12T02:17:05.574Z,99366.78
2023-04-12T02:19:33.351Z,99371.06
2023-04-12T02:22:02.211Z,99369.41
2023-04-12T02:24:29.735Z,99366.78
2023-04-12T02:26:59.124Z,99361.69
2023-04-12T02:29:27.467Z,99352.13
2023-04-12T02:31:55.105Z,99361.59
2023-04-12T02:34:23.162Z,99370.19
2023-04-12T02:36:51.037Z,99366.78
2023-04-12T02:39:18.685Z,99352.84
2023-04-12T02:41:46.984Z,99360.50
2023-04-12T02:44:15.277Z,99357.91
2023-04-12T02:46:43.547Z,99363.22
2023-04-12T02:49:11.620Z,99361.47
2023-04-12T02:51:39.866Z,99366.44
2023-04-12T02:54:07.519Z,99357.06
2023-04-12T02:56:36.084Z,99348.56
2023-04-12T02:59:04.571Z,99340.78
2023-04-12T03:01:33.923Z,99346.75
2023-04-12T03:04:02.504Z,99347.66
2023-04-12T03:06:32.082Z,99344.22
2023-04-12T03:09:00.399Z,99346.09
2023-04-12T03:11:28.010Z,99346.06
2023-04-12T03:13:56.227Z,99340.03
2023-04-12T03:16:29.617Z,99339.22
2023-04-12T03:18:57.916Z,99334.94
2023-04-12T03:21:26.257Z,99331.37
2023-04-12T03:23:54.470Z,99330.53
2023-04-12T03:26:22.719Z,99334.81
2023-04-12T03:28:51.239Z,99333.97
2023-04-12T03:31:21.494Z,99329.63
2023-04-12T03:33:50.266Z,99328.84
2023-04-12T03:36:18.041Z,99324.50
2023-04-12T03:38:47.624Z,99314.97
2023-04-12T03:41:15.906Z,99314.19
2023-04-12T03:43:43.342Z,99314.19
2023-04-12T03:46:11.766Z,99317.63
2023-04-12T03:48:39.495Z,99318.50
2023-04-12T03:51:11.984Z,99310.75
2023-04-12T03:53:40.046Z,99319.38
2023-04-12T03:56:08.602Z,99316.78
2023-04-12T03:58:36.166Z,99308.16
2023-04-12T04:01:06.062Z,99309.88
2023-04-12T04:03:37.182Z,99308.16
2023-04-12T04:06:05.488Z,99315.84
2023-04-12T04:08:33.162Z,99319.38
2023-04-12T04:11:01.036Z,99321.94
2023-04-12T04:13:29.232Z,99315.91
2023-04-12T04:16:02.805Z,99311.62
2023-04-12T04:18:31.122Z,99300.37
2023-04-12T04:20:58.784Z,99308.16
2023-04-12T04:23:29.232Z,99315.06
2023-04-12T04:25:57.789Z,99310.75
2023-04-12T04:28:25.625Z,99306.41
2023-04-12T04:30:55.849Z,99311.59
2023-04-12T04:33:24.398Z,99309.88
2023-04-12T04:35:52.870Z,99310.75
2023-04-12T04:38:20.667Z,99303.81
2023-04-12T04:40:53.338Z,99307.31
2023-04-12T04:43:22.193Z,99303.78
2023-04-12T04:45:54.520Z,99302.94
2023-04-12T04:48:22.090Z,99305.47
2023-04-12T04:50:51.641Z,99307.22
2023-04-12T04:53:22.729Z,99308.13
2023-04-12T04:55:57.801Z,99308.16
2023-04-12T04:58:26.610Z,99302.91
2023-04-12T05:00:57.627Z,99299.50
2023-04-12T05:03:30.838Z,99295.16
2023-04-12T05:06:00.355Z,99302.91
2023-04-12T05:08:28.842Z,99301.19
2023-04-12T05:10:57.314Z,99303.78
2023-04-12T05:13:25.471Z,99308.94
2023-04-12T05:15:52.878Z,99305.56
2023-04-12T05:18:20.974Z,99302.09
2023-04-12T05:20:48.883Z,99302.09
2023-04-12T05:23:16.387Z,99306.44
2023-04-12T05:25:46.920Z,99304.69
2023-04-12T05:28:16.755Z,99310.75
2023-04-12T05:30:45.155Z,99306.41
2023-04-12T05:33:12.887Z,99306.44
2023-04-12T05:35:43.146Z,99306.41
2023-04-12T05:38:11.787Z,99309.78
2023-04-12T05:40:39.528Z,99308.97
2023-04-12T05:43:08.595Z,99309.75
2023-04-12T05:45:36.284Z,99306.28
2023-04-12T05:48:03.976Z,99300.25
2023-04-12T05:50:31.907Z,99299.50
2023-04-12T05:53:01.678Z,99294.28
2023-04-12T05:55:30.025Z,99304.69
2023-04-12T05:57:58.703Z,99295.06
2023-04-12T06:00:26.702Z,99287.28
2023-04-12T06:02:54.989Z,99289.78
2023-04-12T06:05:22.845Z,99281.09
2023-04-12T06:07:50.612Z,99294.09
2023-04-12T06:10:19.254Z,99293.13
2023-04-12T06:12:47.729Z,99292.25
2023-04-12T06:15:15.560Z,99297.69
2023-04-12T06:17:43.671Z,99292.31
2023-04-12T06:20:12.352Z,99294.91
2023-04-12T06:22:40.049Z,99299.25
2023-04-12T06:25:08.364Z,99284.37
2023-04-12T06:27:36.054Z,99302.69
2023-04-12T06:30:03.780Z,99295.56
2023-04-12T06:32:32.383Z,99299.91
2023-04-12T06:35:00.540Z,99308.56
2023-04-12T06:37:28.046Z,99307.69
2023-04-12T06:39:55.723Z,99310.78
2023-04-12T06:42:23.126Z,99315.09
2023-04-12T06:44:50.528Z,99315.66
2023-04-12T06:47:18.182Z,99313.44
2023-04-12T06:49:45.590Z,99310.50
2023-04-12T06:52:12.962Z,99299.94
2023-04-12T06:54:40.710Z,99316.50
2023-04-12T06:57:11.489Z,99306.69
2023-04-12T06:59:39.301Z,99306.69
2023-04-12T07:02:07.869Z,99308.25
2023-04-12T07:04:35.376Z,99319.00
2023-04-12T07:07:02.807Z,99306.69
2023-04-12T07:09:33.479Z,99311.12
2023-04-12T07:12:02.417Z,99311.53
2023-04-12T07:14:30.126Z,99302.69
2023-04-12T07:16:57.604Z,99309.41
2023-04-12T07:19:25.010Z,99310.13
2023-04-12T07:21:52.727Z,99305.69
2023-04-12T07:24:20.114Z,99302.69
2023-04-12T07:26:47.517Z,99292.41
2023-04-12T07:29:15.856Z,99289.50
2023-04-12T07:31:43.283Z,99292.25
2023-04-12T07:34:10.847Z,99284.50
2023-04-12T07:36:38.779Z,99284.22
2023-04-12T07:39:06.198Z,99278.78
2023-04-12T07:41:33.679Z,99284.03
2023-04-12T07:44:01.422Z,99284.91
2023-04-12T07:46:28.933Z,99279.44
2023-04-12T07:48:56.617Z,99278.56
2023-04-12T07:51:25.061Z,99274.59
2023-04-12T07:53:52.560Z,99277.22
2023-04-12T07:56:19.933Z,99272.22
2023-04-12T07:58:48.218Z,99273.75
2023-04-12T08:01:16.022Z,99270.25
2023-04-12T08:03:43.909Z,99274.03
2023-04-12T08:06:11.824Z,99268.03
2023-04-12T08:08:39.244Z,99271.28
2023-04-12T08:11:07.376Z,99271.41
2023-04-12T08:13:35.527Z,99273.97
2023-04-12T08:16:03.235Z,99270.81
2023-04-12T08:18:31.273Z,99277.31
2023-04-12T08:20:58.683Z,99282.16
2023-04-12T08:23:26.155Z,99286.34
2023-04-12T08:26:03.296Z,99277.81
2023-04-12T08:28:31.229Z,99281.69
2023-04-12T08:30:59.585Z,99280.06
2023-04-12T08:33:27.511Z,99289.69
2023-04-12T08:35:55.232Z,99280.56
2023-04-12T08:38:28.012Z,99286.50
2023-04-12T08:41:05.981Z,99277.34
2023-04-12T08:43:34.580Z,99286.09
2023-04-12T08:46:02.202Z,99276.97
2023-04-12T08:48:29.748Z,99274.66
2023-04-12T08:51:00.312Z,99276.22
2023-04-12T08:53:27.724Z,99269.50
2023-04-12T08:55:55.156Z,99264.47
2023-04-12T08:58:23.599Z,99260.81
2023-04-12T09:00:51.806Z,99264.84
2023-04-12T09:03:19.374Z,99260.09
2023-04-12T09:05:47.185Z,99272.44
2023-04-12T09:08:14.705Z,99259.78
2023-04-12T09:10:42.739Z,99266.12
2023-04-12T09:13:10.625Z,99274.38
2023-04-12T09:15:48.769Z,99256.44
2023-04-12T09:18:17.467Z,99266.81
2023-04-12T09:20:45.031Z,99254.81
2023-04-12T09:23:24.116Z,99253.97
2023-04-12T09:25:53.460Z,99253.75
2023-04-12T09:28:26.920Z,99246.97
2023-04-12T09:30:56.198Z,99246.78
2023-04-12T09:33:33.640Z,99247.50
2023-04-12T09:36:02.831Z,99251.59
2023-04-12T09:38:31.104Z,99241.66
2023-04-12T09:41:17.005Z,99245.25
2023-04-12T09:43:46.085Z,99233.78
2023-04-12T09:46:14.263Z,99237.97
2023-04-12T09:48:43.514Z,99226.41
2023-04-12T09:51:12.048Z,99223.97
2023-04-12T09:53:41.505Z,99217.13
2023-04-12T09:56:09.516Z,99219.19
2023-04-12T09:58:38.835Z,99221.38
2023-04-12T10:01:09.459Z,99213.44
2023-04-12T10:03:38.847Z,99216.53
2023-04-12T10:06:06.910Z,99218.31
2023-04-12T10:08:34.485Z,99215.53
2023-04-12T10:11:02.732Z,99223.37
2023-04-12T10:13:32.834Z,99224.41
2023-04-12T10:16:00.898Z,99205.56
2023-04-12T10:18:28.954Z,99209.37
2023-04-12T10:20:57.980Z,99213.72
2023-04-12T10:23:26.120Z,99212.94
2023-04-12T10:25:57.033Z,99210.19
2023-04-12T10:28:25.355Z,99201.84
2023-04-12T10:30:57.356Z,99215.63
2023-04-12T10:33:27.373Z,99215.22
2023-04-12T10:36:00.839Z,99206.94
2023-04-12T10:38:34.590Z,99203.19
2023-04-12T10:41:18.199Z,99204.91
2023-04-12T10:43:46.421Z,99201.25
2023-04-12T10:46:39.261Z,99190.75
2023-04-12T10:49:09.613Z,99190.22
2023-04-12T10:51:37.603Z,99191.00
2023-04-12T10:54:08.399Z,99189.00
2023-04-12T10:56:40.711Z,99176.06
2023-04-12T10:59:08.643Z,99167.16
2023-04-12T11:01:39.604Z,99172.69
2023-04-12T11:04:07.413Z,99166.31
2023-04-12T11:06:49.479Z,99160.94
2023-04-12T11:09:29.541Z,99158.06
2023-04-12T11:11:58.022Z,99168.28
2023-04-12T11:14:31.209Z,99165.56
2023-04-12T11:17:17.142Z,99160.50
2023-04-12T11:19:52.243Z,99158.38
2023-04-12T11:22:21.662Z,99162.78
2023-04-12T11:24:51.313Z,99154.47
2023-04-12T11:27:20.539Z,99159.16
2023-04-12T11:29:49.718Z,99156.56
2023-04-12T11:32:17.612Z,99151.84
2023-04-12T11:34:47.238Z,99142.19
2023-04-12T11:37:15.162Z,99150.34
2023-04-12T11:39:43.813Z,99154.81
2023-04-12T11:42:16.077Z,99155.16
2023-04-12T11:44:56.429Z,99155.16
2023-04-12T11:47:26.017Z,99154.09
2023-04-12T11:49:58.345Z,99147.37
2023-04-12T11:52:30.313Z,99133.16
2023-04-12T11:55:01.319Z,99143.50
2023-04-12T11:57:29.290Z,99134.44
2023-04-12T11:59:59.150Z,99138.19
2023-04-12T12:02:30.241Z,99133.72
2023-04-12T12:04:59.932Z,99133.94
2023-04-12T12:07:27.875Z,99121.03
2023-04-12T12:09:55.794Z,99124.66
2023-04-12T12:12:24.125Z,99121.03
2023-04-12T12:14:51.758Z,99122.81
2023-04-12T12:17:19.464Z,99103.25
2023-04-12T12:19:47.198Z,99105.75
2023-04-12T12:22:19.304Z,99102.19
2023-04-12T12:24:49.981Z,99100.88
2023-04-12T12:27:37.860Z,99107.94
2023-04-12T12:30:10.121Z,99090.88
2023-04-12T12:32:39.413Z,99096.75
2023-04-12T12:35:13.944Z,99085.78
2023-04-12T12:37:53.251Z,99095.44
2023-04-12T12:40:30.448Z,99088.28
2023-04-12T12:42:58.195Z,99084.84
2023-04-12T12:45:27.573Z,99084.13
2023-04-12T12:47:56.044Z,99076.09
2023-04-12T12:50:25.298Z,99073.34
2023-04-12T12:52:53.715Z,99074.56
2023-04-12T12:55:22.982Z,99063.69
2023-04-12T12:58:07.449Z,99073.91
2023-04-12T13:00:36.603Z,99068.75
2023-04-12T13:03:04.770Z,99069.03
2023-04-12T13:05:32.595Z,99065.72
2023-04-12T13:08:00.402Z,99070.50
2023-04-12T13:10:27.875Z,99065.34
2023-04-12T13:12:55.278Z,99067.94
2023-04-12T13:15:24.542Z,99060.88
2023-04-12T13:17:53.084Z,99051.34
2023-04-12T13:20:23.832Z,99054.75
2023-04-12T13:22:54.321Z,99055.00
2023-04-12T13:25:21.848Z,99046.34
2023-04-12T13:27:49.598Z,99038.91
2023-04-12T13:30:20.463Z,99047.75
2023-04-12T13:32:47.914Z,99036.16
2023-04-12T13:35:15.453Z,99036.59
2023-04-12T13:37:43.178Z,99040.09
2023-04-12T13:40:10.962Z,99026.81
2023-04-12T13:42:38.653Z,99033.66
2023-04-12T13:45:07.621Z,99021.47
2023-04-12T13:47:35.410Z,99025.75
2023-04-12T13:50:02.908Z,99018.22
2023-04-12T13:52:30.930Z,99027.97
2023-04-12T13:54:59.618Z,99011.75
2023-04-12T13:57:27.084Z,99020.53
2023-04-12T13:59:54.788Z,99023.19
2023-04-12T14:02:22.477Z,99013.19
2023-04-12T14:04:52.629Z,99019.91
2023-04-12T14:07:20.119Z,99018.22
2023-04-12T14:09:48.605Z,99015.53
2023-04-12T14:12:16.540Z,99019.59
2023-04-12T14:14:44.159Z,99014.06
2023-04-12T14:17:11.821Z,99008.75
2023-04-12T14:19:39.820Z,99011.19
2023-04-12T14:22:07.178Z,99010.28
2023-04-12T14:24:34.573Z,99010.50
2023-04-12T14:27:02.475Z,99010.84
2023-04-12T14:29:29.937Z,99007.78
2023-04-12T14:31:57.379Z,99004.78
2023-04-12T14:34:25.130Z,99007.44
2023-04-12T14:36:52.467Z,98998.53
2023-04-12T14:39:20.110Z,99005.47
2023-04-12T14:41:47.800Z,99009.38
2023-04-12T14:44:15.642Z,99005.03
2023-04-12T14:46:44.150Z,98997.97
2023-04-12T14:49:11.915Z,98997.44
2023-04-12T14:51:39.318Z,98996.53
2023-04-12T14:54:06.722Z,98998.12
2023-04-12T14:56:42.242Z,99004.41
2023-04-12T14:59:13.397Z,99002.56
2023-04-12T15:01:41.714Z,99005.63
2023-04-12T15:04:09.664Z,99000.97
2023-04-12T15:06:42.357Z,99015.09
2023-04-12T15:09:10.305Z,99003.00
2023-04-12T15:11:38.239Z,99009.59
2023-04-12T15:14:09.151Z,99019.88
2023-04-12T15:16:38.196Z,99018.97
2023-04-12T15:19:13.105Z,99016.06
2023-04-12T15:21:44.178Z,99020.34
2023-04-12T15:24:11.630Z,99016.53
2023-04-12T15:26:39.004Z,99004.38
2023-04-12T15:29:08.480Z,99005.88
2023-04-12T15:31:35.917Z,99012.31
2023-04-12T15:34:03.375Z,99010.63
2023-04-12T15:36:36.404Z,99008.38
2023-04-12T15:39:04.931Z,99013.56
2023-04-12T15:41:38.887Z,99014.44
2023-04-12T15:44:07.751Z,99009.22
2023-04-12T15:46:36.289Z,99011.41
2023-04-12T15:49:04.184Z,99006.88
2023-04-12T15:51:32.400Z,99005.53
2023-04-12T15:54:00.551Z,99012.06
2023-04-12T15:56:29.685Z,99004.13
2023-04-12T15:58:57.982Z,99005.22
2023-04-12T16:01:25.906Z,99014.94
2023-04-12T16:03:54.015Z,99008.66
2023-04-12T16:06:21.699Z,99005.72
2023-04-12T16:08:51.525Z,99010.00
2023-04-12T16:11:21.275Z,99006.22
2023-04-12T16:13:49.762Z,99005.84
2023-04-12T16:16:18.573Z,98999.28
2023-04-12T16:18:46.811Z,99000.69
2023-04-12T16:21:19.620Z,98999.66
2023-04-12T16:23:48.384Z,98989.34
2023-04-12T16:26:21.689Z,98984.78
2023-04-12T16:28:52.854Z,98988.59
2023-04-12T16:31:21.199Z,98990.69
2023-04-12T16:33:49.677Z,98984.88
2023-04-12T16:36:17.981Z,98990.31
2023-04-12T16:38:45.796Z,98991.28
2023-04-12T16:41:13.373Z,98984.00
2023-04-12T16:43:42.703Z,98989.16
2023-04-12T16:46:12.552Z,98978.88
2023-04-12T16:48:41.270Z,98981.78
2023-04-12T16:51:09.094Z,98977.59
2023-04-12T16:53:36.661Z,98981.75
2023-04-12T16:56:04.681Z,98979.13
2023-04-12T16:58:33.346Z,98983.44
2023-04-12T17:01:01.860Z,98984.00
2023-04-12T17:03:30.218Z,98977.97
2023-04-12T17:05:58.187Z,98977.84
2023-04-12T17:08:25.898Z,98974.91
2023-04-12T17:10:54.395Z,98973.28
2023-04-12T17:13:22.088Z,98975.88
2023-04-12T17:15:49.597Z,98980.56
2023-04-12T17:18:17.069Z,98980.06
2023-04-12T17:20:45.338Z,98977.19
2023-04-12T17:23:13.536Z,98981.47
2023-04-12T17:25:41.888Z,98987.03
2023-04-12T17:28:09.677Z,98994.06
2023-04-12T17:30:37.148Z,98984.66
2023-04-12T17:33:05.062Z,98977.03
2023-04-12T17:35:32.789Z,98983.00
2023-04-12T17:38:00.232Z,98991.03
2023-04-12T17:40:27.594Z,98987.69
2023-04-12T17:42:55.320Z,98985.09
2023-04-12T17:45:25.794Z,98984.47
2023-04-12T17:47:54.660Z,98984.00
2023-04-12T17:50:22.537Z,98983.62
2023-04-12T17:52:50.425Z,98976.91
2023-04-12T17:55:23.165Z,98981.59
2023-04-12T17:57:51.075Z,98982.22
2023-04-12T18:00:20.207Z,98982.31
2023-04-12T18:02:47.776Z,98991.75
2023-04-12T18:05:15.598Z,98987.41
2023-04-12T18:07:43.150Z,98993.09
2023-04-12T18:10:13.059Z,98991.31
2023-04-12T18:12:41.184Z,98995.84
2023-04-12T18:15:09.227Z,98997.78
2023-04-12T18:17:36.901Z,98991.38
2023-04-12T18:20:09.762Z,98990.50
2023-04-12T18:22:38.001Z,98988.09
2023-04-12T18:25:07.578Z,98990.00
2023-04-12T18:27:35.195Z,98996.16
2023-04-12T18:30:03.488Z,98995.69
2023-04-12T18:32:31.524Z,98993.66
2023-04-12T18:34:59.010Z,98991.09
2023-04-12T18:37:27.120Z,99001.56
2023-04-12T18:39:55.422Z,98997.44
2023-04-12T18:42:22.982Z,99002.91
2023-04-12T18:44:51.224Z,99000.44
2023-04-12T18:47:18.988Z,99003.13
2023-04-12T18:49:46.403Z,99002.31
2023-04-12T18:52:13.847Z,98998.12
2023-04-12T18:54:41.709Z,99009.06
2023-04-12T18:57:09.212Z,99008.19
2023-04-12T18:59:36.703Z,99010.09
2023-04-12T19:02:04.549Z,99024.28
2023-04-12T19:04:32.224Z,99021.16
2023-04-12T19:06:59.601Z,99014.94
2023-04-12T19:09:27.335Z,99013.97
2023-04-12T19:11:56.287Z,99017.50
2023-04-12T19:14:25.223Z,99013.44
2023-04-12T19:16:53.072Z,99014.72
2023-04-12T19:19:20.834Z,99015.56
2023-04-12T19:21:48.243Z,99022.50
2023-04-12T19:24:16.207Z,99018.00
2023-04-12T19:26:47.073Z,99030.88
2023-04-12T19:29:19.589Z,99028.19
2023-04-12T19:31:47.662Z,99017.41
2023-04-12T19:34:18.201Z,99025.94
2023-04-12T19:36:45.804Z,99020.72
2023-04-12T19:39:13.595Z,99034.41
2023-04-12T19:41:41.091Z,99022.25
2023-04-12T19:44:08.692Z,99027.53
2023-04-12T19:46:38.786Z,99027.44
2023-04-12T19:49:06.714Z,99025.87
2023-04-12T19:51:34.669Z,99016.53
2023-04-12T19:54:02.889Z,99014.16
2023-04-12T19:56:31.378Z,99016.63
2023-04-12T19:58:59.940Z,99012.13
2023-04-12T20:01:27.962Z,99012.88
2023-04-12T20:03:55.691Z,99007.16
2023-04-12T20:06:23.229Z,98999.59
2023-04-12T20:08:51.209Z,99002.41
2023-04-12T20:11:18.907Z,99003.16
2023-04-12T20:13:46.619Z,99002.09
2023-04-12T20:16:14.136Z,99001.38
2023-04-12T20:18:42.086Z,99005.94
2023-04-12T20:21:10.250Z,99002.41
2023-04-12T20:23:37.980Z,98995.69
2023-04-12T20:26:05.680Z,98992.31
2023-04-12T20:28:33.118Z,98989.63
2023-04-12T20:31:00.767Z,98997.59
2023-04-12T20:33:29.303Z,98996.13
2023-04-12T20:35:56.665Z,98996.13
2023-04-12T20:38:24.204Z,99001.44
2023-04-12T20:40:52.334Z,99001.56
2023-04-12T20:43:20.323Z,99004.22
2023-04-12T20:45:48.780Z,98994.75
2023-04-12T20:48:18.348Z,98981.72
2023-04-12T20:50:46.596Z,98985.16
2023-04-12T20:53:15.773Z,98976.59
2023-04-12T20:55:46.488Z,98982.72
2023-04-12T20:58:14.464Z,98982.78
2023-04-12T21:00:41.913Z,98975.91
2023-04-12T21:03:10.880Z,98974.13
2023-04-12T21:05:38.706Z,98979.53
2023-04-12T21:08:07.568Z,98971.75
2023-04-12T21:10:35.308Z,98971.00
2023-04-12T21:13:03.023Z,98969.19
2023-04-12T21:15:31.834Z,98977.28
2023-04-12T21:17:59.594Z,98979.00
2023-04-12T21:20:27.363Z,98974.63
2023-04-12T21:22:54.827Z,98973.88
2023-04-12T21:25:22.851Z,98977.34
2023-04-12T21:27:50.429Z,98979.22
2023-04-12T21:30:17.808Z,98973.13
2023-04-12T21:32:45.559Z,98977.50
2023-04-12T21:35:13.635Z,98971.34
2023-04-12T21:37:41.002Z,98968.66
2023-04-12T21:40:12.659Z,98959.28
2023-04-12T21:42:40.768Z,98957.59
2023-04-12T21:45:09.483Z,98956.87
2023-04-12T21:47:39.464Z,98963.06
2023-04-12T21:50:08.503Z,98956.06
2023-04-12T21:52:37.009Z,98958.78
2023-04-12T21:55:05.738Z,98962.31
2023-04-12T21:57:34.191Z,98947.72
2023-04-12T22:00:05.701Z,98949.34
2023-04-12T22:02:39.577Z,98944.22
2023-04-12T22:05:07.676Z,98943.28
2023-04-12T22:07:35.291Z,98944.22
2023-04-12T22:10:02.924Z,98944.22
2023-04-12T22:12:33.758Z,98938.06
2023-04-12T22:15:01.116Z,98932.22
2023-04-12T22:17:29.947Z,98928.69
2023-04-12T22:19:58.165Z,98941.66
2023-04-12T22:22:29.116Z,98931.38
2023-04-12T22:24:56.516Z,98940.78
2023-04-12T22:27:26.472Z,98936.56
2023-04-12T22:29:54.064Z,98939.22
2023-04-12T22:32:21.949Z,98930.66
2023-04-12T22:34:57.832Z,98921.97
2023-04-12T22:37:32.993Z,98927.91
2023-04-12T22:40:06.437Z,98933.09
2023-04-12T22:42:33.804Z,98928.91
2023-04-12T22:45:02.462Z,98923.69
2023-04-12T22:47:30.377Z,98926.31
2023-04-12T22:50:01.434Z,98930.03
2023-04-12T22:52:32.040Z,98936.84
2023-04-12T22:54:59.450Z,98927.41
2023-04-12T22:57:27.413Z,98928.13
2023-04-12T22:59:55.113Z,98926.19
2023-04-12T23:02:22.582Z,98927.97
2023-04-12T23:04:51.558Z,98929.59
2023-04-12T23:07:19.287Z,98922.66
2023-04-12T23:09:46.642Z,98931.22
2023-04-12T23:12:14.400Z,98930.38
2023-04-12T23:14:42.067Z,98920.00
2023-04-12T23:17:09.452Z,98918.09
2023-04-12T23:19:36.891Z,98921.59
2023-04-12T23:22:05.106Z,98916.31
2023-04-12T23:24:32.502Z,98906.53
2023-04-12T23:27:00.345Z,98920.41
2023-04-12T23:29:28.044Z,98913.75
2023-04-12T23:31:55.586Z,98911.87
2023-04-12T23:34:23.059Z,98897.75
2023-04-12T23:36:50.743Z,98901.19
2023-04-12T23:39:18.292Z,98892.38
2023-04-12T23:41:46.593Z,98890.72
2023-04-12T23:44:14.293Z,98895.06
2023-04-12T23:46:41.757Z,98897.66
2023-04-12T23:49:09.194Z,98894.97
2023-04-12T23:51:37.069Z,98895.72
2023-04-12T23:54:04.492Z,98888.00
2023-04-12T23:56:32.061Z,98887.16
2023-04-12T23:58:59.861Z,98893.78
